sensor_id;sensor_type;location;lat;lon;timestamp;noise_LAeq;noise_LA_min;noise_LA_max;noise_LA01;noise_LA95
48148;Laerm;29352;48.708;9.290;2023-08-17T00:02:05;53.45;52.22;54.54;;
48148;Laerm;29352;48.708;9.290;2023-08-17T00:04:31;53.74;52.35;68.34;;
48148;Laerm;29352;48.708;9.290;2023-08-17T00:06:56;53.55;52.29;61.93;;
48148;Laerm;29352;48.708;9.290;2023-08-17T00:09:22;53.50;52.35;57.50;;
48148;Laerm;29352;48.708;9.290;2023-08-17T00:11:47;53.48;52.22;58.25;;
48148;Laerm;29352;48.708;9.290;2023-08-17T00:14:13;53.52;52.35;55.80;;
48148;Laerm;29352;48.708;9.290;2023-08-17T00:16:38;53.51;52.35;54.73;;
48148;Laerm;29352;48.708;9.290;2023-08-17T00:19:04;53.52;52.47;64.54;;
48148;Laerm;29352;48.708;9.290;2023-08-17T00:21:29;53.60;52.59;65.61;;
48148;Laerm;29352;48.708;9.290;2023-08-17T00:23:55;53.64;52.59;55.57;;
48148;Laerm;29352;48.708;9.290;2023-08-17T00:26:21;53.64;52.41;57.28;;
48148;Laerm;29352;48.708;9.290;2023-08-17T00:28:47;53.62;52.41;57.08;;
48148;Laerm;29352;48.708;9.290;2023-08-17T00:31:12;53.70;52.53;54.87;;
48148;Laerm;29352;48.708;9.290;2023-08-17T00:33:37;53.81;52.47;56.05;;
48148;Laerm;29352;48.708;9.290;2023-08-17T00:36:03;53.72;52.47;54.87;;
48148;Laerm;29352;48.708;9.290;2023-08-17T00:38:29;53.86;52.65;55.69;;
48148;Laerm;29352;48.708;9.290;2023-08-17T00:40:54;53.91;52.41;56.20;;
48148;Laerm;29352;48.708;9.290;2023-08-17T00:43:21;53.77;52.71;55.07;;
48148;Laerm;29352;48.708;9.290;2023-08-17T00:45:47;54.01;52.59;55.27;;
48148;Laerm;29352;48.708;9.290;2023-08-17T00:48:13;53.88;52.65;55.27;;
48148;Laerm;29352;48.708;9.290;2023-08-17T00:50:40;53.62;52.53;54.87;;
48148;Laerm;29352;48.708;9.290;2023-08-17T00:53:07;53.60;52.59;55.11;;
48148;Laerm;29352;48.708;9.290;2023-08-17T00:55:39;53.61;52.41;54.94;;
48148;Laerm;29352;48.708;9.290;2023-08-17T00:58:04;53.63;52.53;55.01;;
48148;Laerm;29352;48.708;9.290;2023-08-17T01:00:31;53.71;52.53;67.70;;
48148;Laerm;29352;48.708;9.290;2023-08-17T01:02:57;53.58;52.53;54.80;;
48148;Laerm;29352;48.708;9.290;2023-08-17T01:05:24;53.56;52.47;54.54;;
48148;Laerm;29352;48.708;9.290;2023-08-17T01:07:49;53.58;52.47;54.62;;
48148;Laerm;29352;48.708;9.290;2023-08-17T01:10:16;53.57;52.22;54.54;;
48148;Laerm;29352;48.708;9.290;2023-08-17T01:13:05;53.57;52.47;55.07;;
48148;Laerm;29352;48.708;9.290;2023-08-17T01:15:46;53.59;52.47;54.51;;
48148;Laerm;29352;48.708;9.290;2023-08-17T01:18:32;53.61;52.41;55.89;;
48148;Laerm;29352;48.708;9.290;2023-08-17T01:21:05;53.62;52.47;55.01;;
48148;Laerm;29352;48.708;9.290;2023-08-17T01:23:31;53.63;52.47;56.91;;
48148;Laerm;29352;48.708;9.290;2023-08-17T01:25:57;53.61;52.53;54.62;;
48148;Laerm;29352;48.708;9.290;2023-08-17T01:28:23;53.60;52.41;54.47;;
48148;Laerm;29352;48.708;9.290;2023-08-17T01:31:14;53.58;52.35;54.51;;
48148;Laerm;29352;48.708;9.290;2023-08-17T01:33:54;53.56;52.53;54.47;;
48148;Laerm;29352;48.708;9.290;2023-08-17T01:36:32;53.56;52.41;63.02;;
48148;Laerm;29352;48.708;9.290;2023-08-17T01:39:01;53.56;52.30;58.31;;
48148;Laerm;29352;48.708;9.290;2023-08-17T01:41:30;53.53;52.53;57.30;;
48148;Laerm;29352;48.708;9.290;2023-08-17T01:43:59;53.49;52.22;62.26;;
48148;Laerm;29352;48.708;9.290;2023-08-17T01:46:31;53.49;52.47;54.65;;
48148;Laerm;29352;48.708;9.290;2023-08-17T01:48:58;53.49;52.29;55.77;;
48148;Laerm;29352;48.708;9.290;2023-08-17T01:51:23;53.50;52.29;67.21;;
48148;Laerm;29352;48.708;9.290;2023-08-17T01:53:50;53.63;52.41;67.71;;
48148;Laerm;29352;48.708;9.290;2023-08-17T01:56:17;54.20;52.35;67.28;;
48148;Laerm;29352;48.708;9.290;2023-08-17T01:58:42;55.20;52.29;70.17;;
48148;Laerm;29352;48.708;9.290;2023-08-17T02:01:08;53.48;52.29;55.77;;
48148;Laerm;29352;48.708;9.290;2023-08-17T02:03:33;53.44;52.29;55.83;;
48148;Laerm;29352;48.708;9.290;2023-08-17T02:05:59;53.51;52.16;69.95;;
48148;Laerm;29352;48.708;9.290;2023-08-17T02:08:25;53.43;52.35;69.18;;
48148;Laerm;29352;48.708;9.290;2023-08-17T02:10:51;53.40;52.29;56.33;;
48148;Laerm;29352;48.708;9.290;2023-08-17T02:13:18;53.42;52.09;54.58;;
48148;Laerm;29352;48.708;9.290;2023-08-17T02:15:44;54.61;52.35;83.75;;
48148;Laerm;29352;48.708;9.290;2023-08-17T02:18:11;53.88;52.35;74.77;;
48148;Laerm;29352;48.708;9.290;2023-08-17T02:20:36;53.66;52.41;59.35;;
48148;Laerm;29352;48.708;9.290;2023-08-17T02:23:02;53.50;52.41;55.01;;
48148;Laerm;29352;48.708;9.290;2023-08-17T02:25:28;53.58;52.09;54.90;;
48148;Laerm;29352;48.708;9.290;2023-08-17T02:28:01;53.60;52.53;55.11;;
48148;Laerm;29352;48.708;9.290;2023-08-17T02:30:27;54.04;52.53;56.59;;
48148;Laerm;29352;48.708;9.290;2023-08-17T02:32:52;54.19;52.59;57.65;;
48148;Laerm;29352;48.708;9.290;2023-08-17T02:35:18;54.27;52.76;72.28;;
48148;Laerm;29352;48.708;9.290;2023-08-17T02:37:43;54.39;52.82;58.29;;
48148;Laerm;29352;48.708;9.290;2023-08-17T02:40:09;54.37;52.53;57.44;;
48148;Laerm;29352;48.708;9.290;2023-08-17T02:42:35;53.75;52.29;67.67;;
48148;Laerm;29352;48.708;9.290;2023-08-17T02:45:00;53.53;52.41;68.48;;
48148;Laerm;29352;48.708;9.290;2023-08-17T02:47:26;53.49;52.47;54.47;;
48148;Laerm;29352;48.708;9.290;2023-08-17T02:49:51;53.54;52.35;55.11;;
48148;Laerm;29352;48.708;9.290;2023-08-17T02:52:17;53.67;52.59;60.56;;
48148;Laerm;29352;48.708;9.290;2023-08-17T02:54:42;54.68;52.65;70.97;;
48148;Laerm;29352;48.708;9.290;2023-08-17T02:57:08;55.90;53.19;65.62;;
48148;Laerm;29352;48.708;9.290;2023-08-17T02:59:33;55.28;52.98;60.25;;
48148;Laerm;29352;48.708;9.290;2023-08-17T03:01:58;54.85;53.14;57.91;;
48148;Laerm;29352;48.708;9.290;2023-08-17T03:04:24;55.52;52.98;61.17;;
48148;Laerm;29352;48.708;9.290;2023-08-17T03:06:50;55.64;53.19;61.69;;
48148;Laerm;29352;48.708;9.290;2023-08-17T03:09:15;55.25;53.09;61.16;;
48148;Laerm;29352;48.708;9.290;2023-08-17T03:11:40;54.36;52.82;60.45;;
48148;Laerm;29352;48.708;9.290;2023-08-17T03:14:06;55.11;52.98;59.89;;
48148;Laerm;29352;48.708;9.290;2023-08-17T03:16:31;55.33;53.29;58.78;;
48148;Laerm;29352;48.708;9.290;2023-08-17T03:18:57;54.44;52.47;57.18;;
48148;Laerm;29352;48.708;9.290;2023-08-17T03:21:22;54.47;52.82;58.77;;
48148;Laerm;29352;48.708;9.290;2023-08-17T03:23:49;54.69;53.14;59.23;;
48148;Laerm;29352;48.708;9.290;2023-08-17T03:26:15;54.85;52.82;60.19;;
48148;Laerm;29352;48.708;9.290;2023-08-17T03:28:41;54.20;52.71;57.32;;
48148;Laerm;29352;48.708;9.290;2023-08-17T03:31:07;54.18;52.71;57.50;;
48148;Laerm;29352;48.708;9.290;2023-08-17T03:33:35;53.74;52.47;55.89;;
48148;Laerm;29352;48.708;9.290;2023-08-17T03:36:01;53.58;52.47;58.12;;
48148;Laerm;29352;48.708;9.290;2023-08-17T03:38:26;53.66;52.41;60.40;;
48148;Laerm;29352;48.708;9.290;2023-08-17T03:40:52;53.58;52.53;54.58;;
48148;Laerm;29352;48.708;9.290;2023-08-17T03:43:17;53.57;52.53;54.58;;
48148;Laerm;29352;48.708;9.290;2023-08-17T03:45:43;53.61;52.41;56.82;;
48148;Laerm;29352;48.708;9.290;2023-08-17T03:48:09;53.58;52.41;54.58;;
48148;Laerm;29352;48.708;9.290;2023-08-17T03:50:34;53.62;52.41;63.31;;
48148;Laerm;29352;48.708;9.290;2023-08-17T03:53:00;53.57;52.53;59.70;;
48148;Laerm;29352;48.708;9.290;2023-08-17T03:55:25;53.62;52.47;65.61;;
48148;Laerm;29352;48.708;9.290;2023-08-17T03:57:50;53.59;52.29;62.38;;
48148;Laerm;29352;48.708;9.290;2023-08-17T04:00:16;53.70;52.65;55.33;;
48148;Laerm;29352;48.708;9.290;2023-08-17T04:02:43;53.70;52.53;67.58;;
48148;Laerm;29352;48.708;9.290;2023-08-17T04:05:09;53.58;52.35;59.47;;
48148;Laerm;29352;48.708;9.290;2023-08-17T04:07:35;53.54;52.42;54.51;;
48148;Laerm;29352;48.708;9.290;2023-08-17T04:10:01;53.57;52.53;64.21;;
48148;Laerm;29352;48.708;9.290;2023-08-17T04:12:26;53.70;52.22;59.20;;
48148;Laerm;29352;48.708;9.290;2023-08-17T04:14:51;53.83;52.53;59.98;;
48148;Laerm;29352;48.708;9.290;2023-08-17T04:17:17;53.55;52.29;55.17;;
48148;Laerm;29352;48.708;9.290;2023-08-17T04:19:42;53.54;52.47;59.52;;
48148;Laerm;29352;48.708;9.290;2023-08-17T04:22:08;53.58;52.41;57.76;;
48148;Laerm;29352;48.708;9.290;2023-08-17T04:24:33;53.62;52.47;61.86;;
48148;Laerm;29352;48.708;9.290;2023-08-17T04:26:59;53.66;52.53;56.28;;
48148;Laerm;29352;48.708;9.290;2023-08-17T04:29:24;53.63;52.53;66.05;;
48148;Laerm;29352;48.708;9.290;2023-08-17T04:31:50;53.55;52.47;54.69;;
48148;Laerm;29352;48.708;9.290;2023-08-17T04:34:15;53.54;52.09;54.73;;
48148;Laerm;29352;48.708;9.290;2023-08-17T04:36:41;53.55;52.22;54.54;;
48148;Laerm;29352;48.708;9.290;2023-08-17T04:39:08;53.54;52.35;54.54;;
48148;Laerm;29352;48.708;9.290;2023-08-17T04:41:34;53.54;52.09;54.58;;
48148;Laerm;29352;48.708;9.290;2023-08-17T04:44:00;53.56;52.41;54.51;;
48148;Laerm;29352;48.708;9.290;2023-08-17T04:46:25;53.57;51.96;54.58;;
48148;Laerm;29352;48.708;9.290;2023-08-17T04:48:51;53.56;52.35;54.65;;
48148;Laerm;29352;48.708;9.290;2023-08-17T04:51:17;53.56;52.09;54.69;;
48148;Laerm;29352;48.708;9.290;2023-08-17T04:53:43;53.55;52.09;54.56;;
48148;Laerm;29352;48.708;9.290;2023-08-17T04:56:08;53.57;52.35;54.54;;
48148;Laerm;29352;48.708;9.290;2023-08-17T04:58:34;53.57;52.53;55.39;;
48148;Laerm;29352;48.708;9.290;2023-08-17T05:00:59;53.57;52.35;54.62;;
48148;Laerm;29352;48.708;9.290;2023-08-17T05:03:25;53.59;52.47;54.54;;
48148;Laerm;29352;48.708;9.290;2023-08-17T05:05:52;53.58;52.35;54.58;;
48148;Laerm;29352;48.708;9.290;2023-08-17T05:08:18;53.57;52.41;54.62;;
48148;Laerm;29352;48.708;9.290;2023-08-17T05:10:44;53.60;52.53;54.87;;
48148;Laerm;29352;48.708;9.290;2023-08-17T05:13:09;53.59;52.35;54.62;;
48148;Laerm;29352;48.708;9.290;2023-08-17T05:15:35;53.59;52.29;54.51;;
48148;Laerm;29352;48.708;9.290;2023-08-17T05:18:00;53.58;52.30;54.54;;
48148;Laerm;29352;48.708;9.290;2023-08-17T05:20:26;53.60;52.41;54.69;;
48148;Laerm;29352;48.708;9.290;2023-08-17T05:22:51;53.67;52.41;55.27;;
48148;Laerm;29352;48.708;9.290;2023-08-17T05:25:16;53.62;52.47;54.80;;
48148;Laerm;29352;48.708;9.290;2023-08-17T05:27:42;53.67;52.53;59.44;;
48148;Laerm;29352;48.708;9.290;2023-08-17T05:30:08;53.68;52.47;58.39;;
48148;Laerm;29352;48.708;9.290;2023-08-17T05:32:33;53.71;52.53;57.35;;
48148;Laerm;29352;48.708;9.290;2023-08-17T05:34:59;54.62;52.65;69.43;;
48148;Laerm;29352;48.708;9.290;2023-08-17T05:37:24;53.69;52.47;54.73;;
48148;Laerm;29352;48.708;9.290;2023-08-17T05:39:49;53.71;52.65;54.83;;
48148;Laerm;29352;48.708;9.290;2023-08-17T05:42:15;53.71;52.53;54.73;;
48148;Laerm;29352;48.708;9.290;2023-08-17T05:44:41;53.71;52.71;54.90;;
48148;Laerm;29352;48.708;9.290;2023-08-17T05:47:06;53.73;52.65;55.20;;
48148;Laerm;29352;48.708;9.290;2023-08-17T05:49:32;53.75;52.59;54.80;;
48148;Laerm;29352;48.708;9.290;2023-08-17T05:51:57;53.73;52.35;54.69;;
48148;Laerm;29352;48.708;9.290;2023-08-17T05:54:23;53.73;52.76;54.80;;
48148;Laerm;29352;48.708;9.290;2023-08-17T05:56:48;53.75;52.65;55.11;;
48148;Laerm;29352;48.708;9.290;2023-08-17T05:59:14;53.75;52.59;54.83;;
48148;Laerm;29352;48.708;9.290;2023-08-17T06:01:40;53.77;52.71;55.01;;
48148;Laerm;29352;48.708;9.290;2023-08-17T06:04:06;53.80;52.71;54.97;;
48148;Laerm;29352;48.708;9.290;2023-08-17T06:06:32;53.80;52.71;54.90;;
48148;Laerm;29352;48.708;9.290;2023-08-17T06:08:58;53.80;52.65;54.80;;
48148;Laerm;29352;48.708;9.290;2023-08-17T06:11:23;53.81;52.59;54.97;;
48148;Laerm;29352;48.708;9.290;2023-08-17T06:13:49;53.85;52.65;54.94;;
48148;Laerm;29352;48.708;9.290;2023-08-17T06:16:15;53.87;52.71;54.94;;
48148;Laerm;29352;48.708;9.290;2023-08-17T06:18:41;53.81;52.71;55.01;;
48148;Laerm;29352;48.708;9.290;2023-08-17T06:21:08;53.82;52.76;55.04;;
48148;Laerm;29352;48.708;9.290;2023-08-17T06:23:33;53.83;52.88;54.80;;
48148;Laerm;29352;48.708;9.290;2023-08-17T06:25:59;53.84;52.65;55.07;;
48148;Laerm;29352;48.708;9.290;2023-08-17T06:28:26;53.83;52.76;54.87;;
48148;Laerm;29352;48.708;9.290;2023-08-17T06:30:56;53.88;52.59;55.04;;
48148;Laerm;29352;48.708;9.290;2023-08-17T06:33:22;53.87;52.65;54.87;;
48148;Laerm;29352;48.708;9.290;2023-08-17T06:35:49;53.88;52.71;54.90;;
48148;Laerm;29352;48.708;9.290;2023-08-17T06:38:15;53.89;52.71;54.97;;
48148;Laerm;29352;48.708;9.290;2023-08-17T06:40:41;53.87;52.76;54.83;;
48148;Laerm;29352;48.708;9.290;2023-08-17T06:43:06;53.90;52.88;54.87;;
48148;Laerm;29352;48.708;9.290;2023-08-17T06:45:32;53.90;52.88;54.87;;
48148;Laerm;29352;48.708;9.290;2023-08-17T06:47:58;53.90;52.65;54.94;;
48148;Laerm;29352;48.708;9.290;2023-08-17T06:50:24;53.88;52.71;54.87;;
48148;Laerm;29352;48.708;9.290;2023-08-17T06:52:50;53.87;52.93;54.83;;
48148;Laerm;29352;48.708;9.290;2023-08-17T06:55:15;53.85;52.65;54.94;;
48148;Laerm;29352;48.708;9.290;2023-08-17T06:57:42;53.85;52.76;55.01;;
48148;Laerm;29352;48.708;9.290;2023-08-17T07:00:08;53.81;52.76;54.90;;
48148;Laerm;29352;48.708;9.290;2023-08-17T07:02:36;53.82;52.71;54.83;;
48148;Laerm;29352;48.708;9.290;2023-08-17T07:05:01;53.83;52.59;54.80;;
48148;Laerm;29352;48.708;9.290;2023-08-17T07:07:27;53.84;52.82;54.87;;
48148;Laerm;29352;48.708;9.290;2023-08-17T07:09:52;53.91;52.88;54.87;;
48148;Laerm;29352;48.708;9.290;2023-08-17T07:12:17;53.98;52.76;55.20;;
48148;Laerm;29352;48.708;9.290;2023-08-17T07:14:44;54.06;53.09;55.04;;
48148;Laerm;29352;48.708;9.290;2023-08-17T07:17:10;54.10;53.14;55.36;;
48148;Laerm;29352;48.708;9.290;2023-08-17T07:19:35;54.13;53.04;61.25;;
48148;Laerm;29352;48.708;9.290;2023-08-17T07:22:00;54.14;52.98;55.20;;
48148;Laerm;29352;48.708;9.290;2023-08-17T07:24:26;54.24;53.24;55.36;;
48148;Laerm;29352;48.708;9.290;2023-08-17T07:26:51;54.36;53.34;55.48;;
48148;Laerm;29352;48.708;9.290;2023-08-17T07:29:17;54.41;53.34;56.13;;
48148;Laerm;29352;48.708;9.290;2023-08-17T07:31:42;54.47;53.44;55.63;;
48148;Laerm;29352;48.708;9.290;2023-08-17T07:34:07;54.48;53.44;55.97;;
48148;Laerm;29352;48.708;9.290;2023-08-17T07:36:33;54.52;53.44;55.86;;
48148;Laerm;29352;48.708;9.290;2023-08-17T07:38:59;54.60;53.54;55.89;;
48148;Laerm;29352;48.708;9.290;2023-08-17T07:41:26;54.54;53.29;55.54;;
48148;Laerm;29352;48.708;9.290;2023-08-17T07:43:51;54.56;53.54;55.66;;
48148;Laerm;29352;48.708;9.290;2023-08-17T07:46:17;54.54;53.29;55.75;;
48148;Laerm;29352;48.708;9.290;2023-08-17T07:48:42;54.54;53.54;56.89;;
48148;Laerm;29352;48.708;9.290;2023-08-17T07:51:07;54.53;53.39;55.69;;
48148;Laerm;29352;48.708;9.290;2023-08-17T07:53:33;54.53;53.39;55.66;;
48148;Laerm;29352;48.708;9.290;2023-08-17T07:55:58;54.61;53.44;55.77;;
48148;Laerm;29352;48.708;9.290;2023-08-17T07:58:24;54.61;53.34;56.05;;
48148;Laerm;29352;48.708;9.290;2023-08-17T08:00:49;54.55;53.34;55.60;;
48148;Laerm;29352;48.708;9.290;2023-08-17T08:03:15;54.40;52.98;55.57;;
48148;Laerm;29352;48.708;9.290;2023-08-17T08:05:41;54.32;53.19;55.51;;
48148;Laerm;29352;48.708;9.290;2023-08-17T08:08:06;54.21;53.19;55.33;;
48148;Laerm;29352;48.708;9.290;2023-08-17T08:10:31;54.26;53.14;55.54;;
48148;Laerm;29352;48.708;9.290;2023-08-17T08:12:57;54.31;53.14;56.97;;
48148;Laerm;29352;48.708;9.290;2023-08-17T08:15:22;54.30;53.09;55.86;;
48148;Laerm;29352;48.708;9.290;2023-08-17T08:17:48;54.33;53.24;56.93;;
48148;Laerm;29352;48.708;9.290;2023-08-17T08:20:13;54.43;53.14;56.87;;
48148;Laerm;29352;48.708;9.290;2023-08-17T08:22:39;54.42;53.14;57.68;;
48148;Laerm;29352;48.708;9.290;2023-08-17T08:25:05;54.32;52.88;57.36;;
48148;Laerm;29352;48.708;9.290;2023-08-17T08:27:30;54.35;52.76;60.16;;
48148;Laerm;29352;48.708;9.290;2023-08-17T08:29:56;53.95;52.29;58.26;;
48148;Laerm;29352;48.708;9.290;2023-08-17T08:32:21;53.59;52.29;56.91;;
48148;Laerm;29352;48.708;9.290;2023-08-17T08:34:47;53.40;51.96;58.13;;
48148;Laerm;29352;48.708;9.290;2023-08-17T08:37:12;53.26;51.89;57.16;;
48148;Laerm;29352;48.708;9.290;2023-08-17T08:39:53;53.26;51.96;54.31;;
48148;Laerm;29352;48.708;9.290;2023-08-17T08:42:20;53.16;51.75;54.27;;
48148;Laerm;29352;48.708;9.290;2023-08-17T08:44:47;52.97;51.46;54.11;;
48148;Laerm;29352;48.708;9.290;2023-08-17T08:47:17;52.93;51.75;54.19;;
48148;Laerm;29352;48.708;9.290;2023-08-17T08:50:05;52.97;51.68;54.07;;
48148;Laerm;29352;48.708;9.290;2023-08-17T08:52:39;53.04;51.68;54.07;;
48148;Laerm;29352;48.708;9.290;2023-08-17T08:55:18;53.04;51.89;54.23;;
48148;Laerm;29352;48.708;9.290;2023-08-17T08:57:46;53.13;51.82;54.15;;
48148;Laerm;29352;48.708;9.290;2023-08-17T09:00:15;53.10;51.75;54.11;;
48148;Laerm;29352;48.708;9.290;2023-08-17T09:02:42;52.99;51.14;54.15;;
48148;Laerm;29352;48.708;9.290;2023-08-17T09:05:11;52.98;51.68;54.03;;
48148;Laerm;29352;48.708;9.290;2023-08-17T09:07:37;53.04;51.68;54.15;;
48148;Laerm;29352;48.708;9.290;2023-08-17T09:10:05;53.07;51.82;54.39;;
48148;Laerm;29352;48.708;9.290;2023-08-17T09:12:31;52.97;51.82;54.04;;
48148;Laerm;29352;48.708;9.290;2023-08-17T09:14:57;52.91;51.14;54.07;;
48148;Laerm;29352;48.708;9.290;2023-08-17T09:17:27;52.83;51.61;53.94;;
48148;Laerm;29352;48.708;9.290;2023-08-17T09:19:53;52.82;51.14;53.99;;
48148;Laerm;29352;48.708;9.290;2023-08-17T09:22:40;52.76;51.06;54.69;;
48148;Laerm;29352;48.708;9.290;2023-08-17T09:25:08;52.68;51.30;54.94;;
48148;Laerm;29352;48.708;9.290;2023-08-17T09:27:38;52.69;51.30;58.66;;
48148;Laerm;29352;48.708;9.290;2023-08-17T09:30:10;52.69;51.22;53.68;;
48148;Laerm;29352;48.708;9.290;2023-08-17T09:32:36;52.64;51.30;55.20;;
48148;Laerm;29352;48.708;9.290;2023-08-17T09:35:03;52.64;51.38;53.72;;
48148;Laerm;29352;48.708;9.290;2023-08-17T09:37:29;52.61;51.14;53.81;;
48148;Laerm;29352;48.708;9.290;2023-08-17T09:39:55;52.59;51.14;53.81;;
48148;Laerm;29352;48.708;9.290;2023-08-17T09:42:21;52.55;51.22;53.99;;
48148;Laerm;29352;48.708;9.290;2023-08-17T09:44:49;52.46;50.62;53.77;;
48148;Laerm;29352;48.708;9.290;2023-08-17T09:47:16;52.48;51.14;53.58;;
48148;Laerm;29352;48.708;9.290;2023-08-17T09:49:52;52.48;50.80;53.58;;
48148;Laerm;29352;48.708;9.290;2023-08-17T09:52:22;52.47;50.89;53.68;;
48148;Laerm;29352;48.708;9.290;2023-08-17T09:54:49;52.50;51.03;53.68;;
48148;Laerm;29352;48.708;9.290;2023-08-17T09:57:17;52.53;51.14;53.63;;
48148;Laerm;29352;48.708;9.290;2023-08-17T09:59:42;52.53;51.06;53.77;;
48148;Laerm;29352;48.708;9.290;2023-08-17T10:02:19;52.53;51.06;53.63;;
48148;Laerm;29352;48.708;9.290;2023-08-17T10:04:56;52.46;50.89;53.72;;
48148;Laerm;29352;48.708;9.290;2023-08-17T10:07:30;52.45;50.98;53.63;;
48148;Laerm;29352;48.708;9.290;2023-08-17T10:10:05;52.51;50.89;53.63;;
48148;Laerm;29352;48.708;9.290;2023-08-17T10:12:44;52.46;50.98;53.54;;
48148;Laerm;29352;48.708;9.290;2023-08-17T10:15:13;52.42;50.89;53.58;;
48148;Laerm;29352;48.708;9.290;2023-08-17T10:18:17;52.45;50.96;53.63;;
48148;Laerm;29352;48.708;9.290;2023-08-17T10:21:00;52.53;51.19;53.63;;
48148;Laerm;29352;48.708;9.290;2023-08-17T10:23:28;52.51;51.06;53.81;;
48148;Laerm;29352;48.708;9.290;2023-08-17T10:25:55;52.56;51.14;53.63;;
48148;Laerm;29352;48.708;9.290;2023-08-17T10:28:24;52.54;51.14;53.68;;
48148;Laerm;29352;48.708;9.290;2023-08-17T10:30:51;52.47;51.06;53.58;;
48148;Laerm;29352;48.708;9.290;2023-08-17T10:33:19;52.34;51.06;53.81;;
48148;Laerm;29352;48.708;9.290;2023-08-17T10:35:46;52.33;50.80;53.55;;
48148;Laerm;29352;48.708;9.290;2023-08-17T10:38:15;52.34;50.89;53.58;;
48148;Laerm;29352;48.708;9.290;2023-08-17T10:40:42;52.36;50.80;59.28;;
48148;Laerm;29352;48.708;9.290;2023-08-17T10:43:08;52.47;51.06;53.77;;
48148;Laerm;29352;48.708;9.290;2023-08-17T10:45:35;52.54;50.89;53.63;;
48148;Laerm;29352;48.708;9.290;2023-08-17T10:50:39;52.34;50.43;53.44;;
48148;Laerm;29352;48.708;9.290;2023-08-17T10:53:12;52.28;50.53;60.21;;
48148;Laerm;29352;48.708;9.290;2023-08-17T10:55:44;52.32;50.98;53.81;;
48148;Laerm;29352;48.708;9.290;2023-08-17T10:58:10;52.50;51.06;53.63;;
48148;Laerm;29352;48.708;9.290;2023-08-17T11:00:38;52.51;50.80;53.68;;
48148;Laerm;29352;48.708;9.290;2023-08-17T11:03:17;52.42;50.98;53.49;;
48148;Laerm;29352;48.708;9.290;2023-08-17T11:08:29;52.30;50.71;53.63;;
48148;Laerm;29352;48.708;9.290;2023-08-17T11:11:05;52.19;50.80;53.54;;
48148;Laerm;29352;48.708;9.290;2023-08-17T11:13:33;52.09;50.53;53.39;;
48148;Laerm;29352;48.708;9.290;2023-08-17T11:16:01;52.07;50.33;57.57;;
48148;Laerm;29352;48.708;9.290;2023-08-17T11:18:27;52.12;50.43;53.54;;
48148;Laerm;29352;48.708;9.290;2023-08-17T11:20:54;52.09;50.03;53.63;;
48148;Laerm;29352;48.708;9.290;2023-08-17T11:23:22;52.04;50.53;53.39;;
48148;Laerm;29352;48.708;9.290;2023-08-17T11:25:49;51.94;50.23;53.19;;
48148;Laerm;29352;48.708;9.290;2023-08-17T11:28:16;51.93;49.81;55.14;;
48148;Laerm;29352;48.708;9.290;2023-08-17T11:30:42;51.93;50.23;53.29;;
48148;Laerm;29352;48.708;9.290;2023-08-17T11:33:10;51.92;50.33;53.14;;
48148;Laerm;29352;48.708;9.290;2023-08-17T11:35:37;52.08;50.33;53.44;;
48148;Laerm;29352;48.708;9.290;2023-08-17T11:38:03;51.91;50.13;53.29;;
48148;Laerm;29352;48.708;9.290;2023-08-17T11:40:32;51.94;50.13;53.39;;
48148;Laerm;29352;48.708;9.290;2023-08-17T11:42:58;51.89;50.13;53.19;;
48148;Laerm;29352;48.708;9.290;2023-08-17T11:45:23;51.84;50.33;53.19;;
48148;Laerm;29352;48.708;9.290;2023-08-17T11:47:49;51.81;50.23;53.19;;
48148;Laerm;29352;48.708;9.290;2023-08-17T11:50:14;51.76;50.08;53.29;;
48148;Laerm;29352;48.708;9.290;2023-08-17T11:52:40;51.70;50.03;53.04;;
48148;Laerm;29352;48.708;9.290;2023-08-17T11:55:08;51.65;49.46;53.09;;
48148;Laerm;29352;48.708;9.290;2023-08-17T11:57:36;51.67;49.92;52.98;;
48148;Laerm;29352;48.708;9.290;2023-08-17T12:00:04;51.85;50.03;53.24;;
48148;Laerm;29352;48.708;9.290;2023-08-17T12:02:35;51.85;50.03;53.19;;
48148;Laerm;29352;48.708;9.290;2023-08-17T12:05:07;51.89;50.03;53.14;;
48148;Laerm;29352;48.708;9.290;2023-08-17T12:07:35;51.85;50.13;53.09;;
48148;Laerm;29352;48.708;9.290;2023-08-17T12:10:03;51.98;50.33;53.19;;
48148;Laerm;29352;48.708;9.290;2023-08-17T12:12:30;52.01;50.53;53.24;;
48148;Laerm;29352;48.708;9.290;2023-08-17T12:14:57;52.07;50.53;53.19;;
48148;Laerm;29352;48.708;9.290;2023-08-17T12:17:23;52.10;50.62;53.44;;
48148;Laerm;29352;48.708;9.290;2023-08-17T12:19:50;52.21;50.89;53.39;;
48148;Laerm;29352;48.708;9.290;2023-08-17T12:22:16;52.37;50.89;53.68;;
48148;Laerm;29352;48.708;9.290;2023-08-17T12:24:43;52.52;51.14;53.63;;
48148;Laerm;29352;48.708;9.290;2023-08-17T12:27:09;52.63;51.14;53.72;;
48148;Laerm;29352;48.708;9.290;2023-08-17T12:29:55;52.82;51.53;53.94;;
48148;Laerm;29352;48.708;9.290;2023-08-17T12:32:20;52.87;51.41;54.11;;
48148;Laerm;29352;48.708;9.290;2023-08-17T12:34:46;52.94;51.61;54.07;;
48148;Laerm;29352;48.708;9.290;2023-08-17T12:37:19;52.99;51.38;56.38;;
48148;Laerm;29352;48.708;9.290;2023-08-17T12:39:48;53.06;51.61;57.42;;
48148;Laerm;29352;48.708;9.290;2023-08-17T12:42:14;53.28;52.16;60.99;;
48148;Laerm;29352;48.708;9.290;2023-08-17T12:44:41;53.45;52.09;58.93;;
48148;Laerm;29352;48.708;9.290;2023-08-17T12:47:06;53.50;52.35;54.73;;
48148;Laerm;29352;48.708;9.290;2023-08-17T12:49:32;53.71;52.35;57.36;;
48148;Laerm;29352;48.708;9.290;2023-08-17T12:51:57;53.81;52.65;55.11;;
48148;Laerm;29352;48.708;9.290;2023-08-17T12:54:23;53.87;52.71;62.45;;
48148;Laerm;29352;48.708;9.290;2023-08-17T12:56:48;53.83;52.76;54.87;;
48148;Laerm;29352;48.708;9.290;2023-08-17T12:59:14;53.89;52.59;56.80;;
48148;Laerm;29352;48.708;9.290;2023-08-17T13:01:39;54.10;52.71;58.23;;
48148;Laerm;29352;48.708;9.290;2023-08-17T13:04:05;54.07;52.76;55.94;;
48148;Laerm;29352;48.708;9.290;2023-08-17T13:06:31;54.49;53.14;60.06;;
48148;Laerm;29352;48.708;9.290;2023-08-17T13:08:57;55.14;53.14;63.17;;
48148;Laerm;29352;48.708;9.290;2023-08-17T13:11:22;54.51;53.14;61.37;;
48148;Laerm;29352;48.708;9.290;2023-08-17T13:13:47;54.48;53.14;58.84;;
48148;Laerm;29352;48.708;9.290;2023-08-17T13:16:13;54.48;53.14;58.71;;
48148;Laerm;29352;48.708;9.290;2023-08-17T13:18:39;54.48;53.19;55.66;;
48148;Laerm;29352;48.708;9.290;2023-08-17T13:21:04;54.61;53.39;55.97;;
48148;Laerm;29352;48.708;9.290;2023-08-17T13:23:30;54.85;53.58;56.13;;
48148;Laerm;29352;48.708;9.290;2023-08-17T13:25:55;55.00;53.63;56.76;;
48148;Laerm;29352;48.708;9.290;2023-08-17T13:28:21;55.00;53.77;57.14;;
48148;Laerm;29352;48.708;9.290;2023-08-17T13:30:46;55.01;53.81;58.13;;
48148;Laerm;29352;48.708;9.290;2023-08-17T13:33:12;55.15;53.90;57.08;;
48148;Laerm;29352;48.708;9.290;2023-08-17T13:35:38;54.87;53.68;57.44;;
48148;Laerm;29352;48.708;9.290;2023-08-17T13:38:04;54.87;53.63;56.15;;
48148;Laerm;29352;48.708;9.290;2023-08-17T13:40:31;55.37;53.77;62.86;;
48148;Laerm;29352;48.708;9.290;2023-08-17T13:42:56;55.17;53.90;62.78;;
48148;Laerm;29352;48.708;9.290;2023-08-17T13:45:24;54.95;53.72;56.18;;
48148;Laerm;29352;48.708;9.290;2023-08-17T13:47:49;55.08;53.90;56.95;;
48148;Laerm;29352;48.708;9.290;2023-08-17T13:50:15;54.98;53.89;56.45;;